Hamden, Ohio
Current Conditions -  °F | °C
As of 11:15 AM on Tuesday 21 Oct 2014 (Local Time) from KUNI Reporting Station
Drizzle Drizzle  
Wind Chill: 10°   Ceiling: 2000
Heat Index: 10°   Visibility: 5mi
Dew Point:   Wind: 9mph
Humidity: 88%   Direction: 310°NW
Pressure: 29.95"   Gusts: NA
Location:  39.16°N, 82.53°W
Report Text: KUNI 211515Z AUTO 31008KT 5SM -DZ SCT014 BKN020 OVC043 10/08 A2995 RMK AO2 T01000081
Loading
Personal Weather Stations






























Interactive Weather Map
Tropical Storm Tracking
New forecast layout! Learn more

10-Day Weather Forecast

Advertisements
Track Severe Weather on mobile